Saltar para o conteúdo principal

Porto, Serra do Pilar

ID 1240546 · 41.1385, -8.6025 mapa

Última leitura · 2026-05-09 19:00 (Europe/Lisbon)

Temperatura
16.6 °C
Humidade
86 %
Pressão
1,005.2 hPa
Precipitação
0.0 mm
Radiação
Velocidade do vento
13.0 km/h
Direcção do vento
SW · Sudoeste

Histórico de 24 horas

Hora (Europe/Lisbon) Temperatura Humidade Pressão Chuva Vento Direcção
2026-05-09 19:00 16.6 °C 86 % 1,005.2 0.0 mm 13.0 km/h SW
2026-05-09 18:00 16.8 °C 90 % 1,004.5 0.0 mm 19.1 km/h SW
2026-05-09 17:00 16.8 °C 93 % 1,004.1 0.0 mm 20.5 km/h SW
2026-05-09 16:00 15.5 °C 100 % 1,003.9 0.0 mm 7.2 km/h S
2026-05-09 15:00 13.9 °C 100 % 1,003.7 1.9 mm 7.2 km/h SW
2026-05-09 14:00 17.3 °C 90 % 1,002.9 2.0 mm 13.3 km/h S
2026-05-09 13:00 17.1 °C 98 % 1,003.2 0.0 mm 14.4 km/h SE
2026-05-09 12:00 14.2 °C 100 % 1,003.9 1.1 mm 11.2 km/h E
2026-05-09 11:00 13.1 °C 100 % 1,004.0 2.3 mm 4.3 km/h SW
2026-05-09 10:00 14.2 °C 100 % 1,003.5 2.2 mm 4.7 km/h SW
2026-05-09 09:00 13.7 °C 100 % 1,003.7 0.2 mm 6.5 km/h SW
2026-05-09 08:00 13.0 °C 100 % 1,003.5 0.0 mm 10.8 km/h SE
2026-05-09 07:00 12.0 °C 100 % 1,003.6 0.0 mm 7.6 km/h SE
2026-05-09 06:00 12.4 °C 100 % 1,003.8 0.0 mm 9.4 km/h E
2026-05-09 05:00 13.4 °C 98 % 1,004.1 0.0 mm 7.6 km/h E
2026-05-09 04:00 13.7 °C 98 % 1,004.4 0.0 mm 10.8 km/h S
2026-05-09 03:00 13.1 °C 100 % 1,004.8 0.0 mm 8.6 km/h SE
2026-05-09 02:00 13.2 °C 100 % 1,005.2 0.0 mm 15.8 km/h SE
2026-05-09 01:00 14.2 °C 95 % 1,005.9 1.0 mm 13.0 km/h SE
2026-05-09 00:00 15.9 °C 71 % 1,005.4 0.0 mm 14.0 km/h S
2026-05-08 23:00 15.7 °C 71 % 1,005.5 0.0 mm 15.1 km/h SE
2026-05-08 22:00 15.7 °C 70 % 1,005.7 0.0 mm 11.2 km/h SE
2026-05-08 21:00 17.1 °C 64 % 1,005.7 0.0 mm 11.2 km/h E
2026-05-08 20:00 18.1 °C 61 % 1,006.0 0.0 mm 11.9 km/h E